createdAt,value
2022-09-11T00:00:04.352Z,12.60
2022-09-11T00:01:04.348Z,12.80
2022-09-11T00:02:04.387Z,13.40
2022-09-11T00:03:04.356Z,12.80
2022-09-11T00:04:04.290Z,12.80
2022-09-11T00:05:04.281Z,13.10
2022-09-11T00:06:04.294Z,12.70
2022-09-11T00:07:04.276Z,12.30
2022-09-11T00:08:04.263Z,12.40
2022-09-11T00:09:04.231Z,12.70
2022-09-11T00:10:04.235Z,13.00
2022-09-11T00:11:04.217Z,12.40
2022-09-11T00:12:04.192Z,13.60
2022-09-11T00:13:04.203Z,13.50
2022-09-11T00:14:04.425Z,13.40
2022-09-11T00:15:04.164Z,13.00
2022-09-11T00:16:04.522Z,12.90
2022-09-11T00:17:04.143Z,12.20
2022-09-11T00:18:04.170Z,13.00
2022-09-11T00:19:04.141Z,12.80
2022-09-11T00:20:04.129Z,12.60
2022-09-11T00:21:04.102Z,12.90
2022-09-11T00:22:04.439Z,13.00
2022-09-11T00:23:04.089Z,12.70
2022-09-11T00:24:04.064Z,12.90
2022-09-11T00:25:04.093Z,12.70
2022-09-11T00:26:04.038Z,12.90
2022-09-11T00:27:04.040Z,12.80
2022-09-11T00:28:04.017Z,13.10
2022-09-11T00:29:04.008Z,12.70
2022-09-11T00:30:03.997Z,13.10
2022-09-11T00:31:04.336Z,12.60
2022-09-11T00:32:03.969Z,11.80
2022-09-11T00:33:03.958Z,12.20
2022-09-11T00:34:03.952Z,12.60
2022-09-11T00:35:03.951Z,11.90
2022-09-11T00:36:04.129Z,12.40
2022-09-11T00:37:03.910Z,12.50
2022-09-11T00:38:03.901Z,12.50
2022-09-11T00:39:03.892Z,11.90
2022-09-11T00:40:03.933Z,12.70
2022-09-11T00:41:03.864Z,12.30
2022-09-11T00:42:04.085Z,11.80
2022-09-11T00:43:03.850Z,12.70
2022-09-11T00:44:04.142Z,12.00
2022-09-11T00:45:03.847Z,12.00
2022-09-11T00:46:03.874Z,12.60
2022-09-11T00:47:03.818Z,12.50
2022-09-11T00:48:03.789Z,12.50
2022-09-11T00:49:03.974Z,12.00
2022-09-11T00:50:03.763Z,12.10
2022-09-11T00:51:03.758Z,12.30
2022-09-11T00:52:03.745Z,11.70
2022-09-11T00:53:03.726Z,12.40
2022-09-11T00:54:03.736Z,12.10
2022-09-11T00:55:03.739Z,12.00
2022-09-11T00:56:03.722Z,12.10
2022-09-11T00:57:03.699Z,12.00
2022-09-11T00:58:03.679Z,12.20
2022-09-11T00:59:03.667Z,11.40
2022-09-11T01:00:03.656Z,12.20
2022-09-11T01:01:03.977Z,12.20
2022-09-11T01:02:03.707Z,12.10
2022-09-11T01:03:03.608Z,11.70
2022-09-11T01:04:03.621Z,12.10
2022-09-11T01:05:03.590Z,11.50
2022-09-11T01:06:03.587Z,12.30
2022-09-11T01:07:03.799Z,12.00
2022-09-11T01:08:03.573Z,12.50
2022-09-11T01:09:03.549Z,12.00
2022-09-11T01:10:03.553Z,12.10
2022-09-11T01:11:03.543Z,12.50
2022-09-11T01:12:03.511Z,12.60
2022-09-11T01:13:03.532Z,12.10
2022-09-11T01:14:03.790Z,12.00
2022-09-11T01:15:03.479Z,12.80
2022-09-11T01:16:03.502Z,12.10
2022-09-11T01:17:03.454Z,12.00
2022-09-11T01:18:03.465Z,12.80
2022-09-11T01:19:03.445Z,12.60
2022-09-11T01:20:03.755Z,12.30
2022-09-11T01:21:03.425Z,12.10
2022-09-11T01:22:24.406Z,12.20
2022-09-11T01:23:03.384Z,12.10
2022-09-11T01:24:03.373Z,12.30
2022-09-11T01:25:03.629Z,12.30
2022-09-11T01:26:03.373Z,12.50
2022-09-11T01:27:03.437Z,11.70
2022-09-11T01:28:03.335Z,12.40
2022-09-11T01:29:03.326Z,11.80
2022-09-11T01:30:03.305Z,12.60
2022-09-11T01:31:03.311Z,12.30
2022-09-11T01:32:03.485Z,12.00
2022-09-11T01:33:03.272Z,12.20
2022-09-11T01:34:03.271Z,12.40
2022-09-11T01:35:03.261Z,12.00
2022-09-11T01:36:03.256Z,12.50
2022-09-11T01:37:03.227Z,12.80
2022-09-11T01:38:03.230Z,12.70
2022-09-11T01:39:03.207Z,13.30
2022-09-11T01:40:03.226Z,12.90
2022-09-11T01:41:03.192Z,12.80
2022-09-11T01:42:03.181Z,13.70
2022-09-11T01:43:03.175Z,12.70
2022-09-11T01:44:03.460Z,12.70
2022-09-11T01:45:03.129Z,13.10
2022-09-11T01:46:03.200Z,12.90
2022-09-11T01:47:03.110Z,13.00
2022-09-11T01:48:03.112Z,12.90
2022-09-11T01:49:10.422Z,13.90
2022-09-11T01:50:03.092Z,13.00
2022-09-11T01:51:03.067Z,13.60
2022-09-11T01:52:03.061Z,13.10
2022-09-11T01:53:03.048Z,13.40
2022-09-11T01:54:03.028Z,13.20
2022-09-11T01:55:03.242Z,13.60
2022-09-11T01:56:02.999Z,13.30
2022-09-11T01:57:03.023Z,14.20
2022-09-11T01:58:02.996Z,14.60
2022-09-11T01:59:02.980Z,13.60
2022-09-11T02:00:02.960Z,13.80
2022-09-11T02:01:03.188Z,13.90
2022-09-11T02:02:03.018Z,14.40
2022-09-11T02:03:02.944Z,14.70
2022-09-11T02:04:02.936Z,13.80
2022-09-11T02:05:02.904Z,13.80
2022-09-11T02:06:02.902Z,14.40
2022-09-11T02:07:02.903Z,13.80
2022-09-11T02:08:02.885Z,14.10
2022-09-11T02:09:02.885Z,14.40
2022-09-11T02:10:02.857Z,14.40
2022-09-11T02:11:02.848Z,14.30
2022-09-11T02:12:02.843Z,14.60
2022-09-11T02:13:02.813Z,15.20
2022-09-11T02:14:02.808Z,15.00
2022-09-11T02:15:02.794Z,14.80
2022-09-11T02:16:02.831Z,15.00
2022-09-11T02:17:02.766Z,14.60
2022-09-11T02:18:02.955Z,14.10
2022-09-11T02:19:02.755Z,14.70
2022-09-11T02:20:02.769Z,14.30
2022-09-11T02:21:02.746Z,14.60
2022-09-11T02:22:02.751Z,13.90
2022-09-11T02:23:03.008Z,13.90
2022-09-11T02:24:02.700Z,14.40
2022-09-11T02:25:02.924Z,14.50
2022-09-11T02:26:02.666Z,15.20
2022-09-11T02:27:02.671Z,14.10
2022-09-11T02:28:02.646Z,14.10
2022-09-11T02:29:02.651Z,14.60
2022-09-11T02:30:02.958Z,14.10
2022-09-11T02:31:02.939Z,15.20
2022-09-11T02:32:02.603Z,14.10
2022-09-11T02:33:02.602Z,14.90
2022-09-11T02:34:02.572Z,14.80
2022-09-11T02:35:02.831Z,14.80
2022-09-11T02:36:02.564Z,14.60
2022-09-11T02:37:02.555Z,15.00
2022-09-11T02:38:02.544Z,13.90
2022-09-11T02:39:02.521Z,14.40
2022-09-11T02:40:02.546Z,14.10
2022-09-11T02:41:02.822Z,14.60
2022-09-11T02:42:02.483Z,14.10
2022-09-11T02:43:02.490Z,14.20
2022-09-11T02:44:02.473Z,14.60
2022-09-11T02:45:02.444Z,14.00
2022-09-11T02:46:02.711Z,14.70
2022-09-11T02:47:02.450Z,14.00
2022-09-11T02:48:02.458Z,13.70
2022-09-11T02:49:02.415Z,15.20
2022-09-11T02:50:02.385Z,15.20
2022-09-11T02:51:02.383Z,14.90
2022-09-11T02:52:02.366Z,14.40
2022-09-11T02:53:02.355Z,14.30
2022-09-11T02:54:02.607Z,15.10
2022-09-11T02:55:02.337Z,15.20
2022-09-11T02:56:02.316Z,14.90
2022-09-11T02:57:02.321Z,15.50
2022-09-11T02:58:02.297Z,15.10
2022-09-11T02:59:02.601Z,15.20
2022-09-11T03:00:02.276Z,14.90
2022-09-11T03:01:02.436Z,16.10
2022-09-11T03:02:02.361Z,16.10
2022-09-11T03:03:02.252Z,15.40
2022-09-11T03:04:02.559Z,15.20
2022-09-11T03:05:02.249Z,15.10
2022-09-11T03:06:02.222Z,15.50
2022-09-11T03:07:02.199Z,16.20
2022-09-11T03:08:02.188Z,15.70
2022-09-11T03:09:02.388Z,15.50
2022-09-11T03:10:02.160Z,15.70
2022-09-11T03:11:02.164Z,15.60
2022-09-11T03:12:02.474Z,15.60
2022-09-11T03:13:02.136Z,14.70
2022-09-11T03:14:02.143Z,15.50
2022-09-11T03:15:02.112Z,15.30
2022-09-11T03:16:02.157Z,14.90
2022-09-11T03:17:02.087Z,14.80
2022-09-11T03:18:02.115Z,16.10
2022-09-11T03:19:02.075Z,15.40
2022-09-11T03:20:02.051Z,15.50
2022-09-11T03:21:02.031Z,15.00
2022-09-11T03:22:02.036Z,16.40
2022-09-11T03:23:02.006Z,15.30
2022-09-11T03:24:02.305Z,15.70
2022-09-11T03:25:01.998Z,15.60
2022-09-11T03:26:01.988Z,15.00
2022-09-11T03:27:01.966Z,15.50
2022-09-11T03:28:01.962Z,15.80
2022-09-11T03:29:01.959Z,16.10
2022-09-11T03:30:02.157Z,15.30
2022-09-11T03:31:01.916Z,15.40
2022-09-11T03:32:01.921Z,15.10
2022-09-11T03:33:01.936Z,15.10
2022-09-11T03:34:01.888Z,15.70
2022-09-11T03:35:02.211Z,16.10
2022-09-11T03:36:01.882Z,16.30
2022-09-11T03:37:01.848Z,16.70
2022-09-11T03:38:01.853Z,15.40
2022-09-11T03:39:01.829Z,16.30
2022-09-11T03:40:02.255Z,16.60
2022-09-11T03:41:01.812Z,16.50
2022-09-11T03:42:01.789Z,16.50
2022-09-11T03:43:01.792Z,16.70
2022-09-11T03:44:01.783Z,16.10
2022-09-11T03:45:01.750Z,16.20
2022-09-11T03:46:02.078Z,16.10
2022-09-11T03:47:01.731Z,16.60
2022-09-11T03:48:01.946Z,16.10
2022-09-11T03:49:02.005Z,16.40
2022-09-11T03:50:01.702Z,16.80
2022-09-11T03:51:01.704Z,16.40
2022-09-11T03:52:01.695Z,16.50
2022-09-11T03:53:01.946Z,16.70
2022-09-11T03:54:01.654Z,16.70
2022-09-11T03:55:01.661Z,17.70
2022-09-11T03:56:01.647Z,17.60
2022-09-11T03:57:01.623Z,17.10
2022-09-11T03:58:01.913Z,17.00
2022-09-11T03:59:01.616Z,17.10
2022-09-11T04:00:01.610Z,17.90
2022-09-11T04:01:01.629Z,18.10
2022-09-11T04:02:01.910Z,17.40
2022-09-11T04:03:01.559Z,17.30
2022-09-11T04:04:01.565Z,17.50
2022-09-11T04:05:01.741Z,16.90
2022-09-11T04:06:01.830Z,16.70
2022-09-11T04:07:01.497Z,16.80
2022-09-11T04:08:01.710Z,16.60
2022-09-11T04:09:01.499Z,16.90
2022-09-11T04:10:01.468Z,16.70
2022-09-11T04:11:01.457Z,17.40
2022-09-11T04:12:01.679Z,16.80
2022-09-11T04:13:01.451Z,17.90
2022-09-11T04:14:01.420Z,17.40
2022-09-11T04:15:01.435Z,18.00
2022-09-11T04:16:01.470Z,18.10
2022-09-11T04:17:01.387Z,18.00
2022-09-11T04:18:05.430Z,18.00
2022-09-11T04:19:01.376Z,18.40
2022-09-11T04:20:01.372Z,18.50
2022-09-11T04:21:01.349Z,17.60
2022-09-11T04:22:01.344Z,18.20
2022-09-11T04:23:01.344Z,18.70
2022-09-11T04:24:01.604Z,17.60
2022-09-11T04:25:01.634Z,17.90
2022-09-11T04:26:01.281Z,19.00
2022-09-11T04:27:01.295Z,17.80
2022-09-11T04:28:01.262Z,17.80
2022-09-11T04:29:01.298Z,18.20
2022-09-11T04:30:01.256Z,19.00
2022-09-11T04:31:01.492Z,18.80
2022-09-11T04:32:01.238Z,18.90
2022-09-11T04:33:01.236Z,18.40
2022-09-11T04:34:01.217Z,19.10
2022-09-11T04:35:01.227Z,18.50
2022-09-11T04:36:01.228Z,19.00
2022-09-11T04:37:01.159Z,18.00
2022-09-11T04:38:01.159Z,18.60
2022-09-11T04:39:01.183Z,19.00
2022-09-11T04:40:01.175Z,18.70
2022-09-11T04:41:01.114Z,19.10
2022-09-11T04:42:01.379Z,19.30
2022-09-11T04:43:01.087Z,18.10
2022-09-11T04:44:04.753Z,19.70
2022-09-11T04:45:01.081Z,18.80
2022-09-11T04:46:01.084Z,18.80
2022-09-11T04:47:01.062Z,18.30
2022-09-11T04:48:01.258Z,19.20
2022-09-11T04:49:01.299Z,19.50
2022-09-11T04:50:01.009Z,19.50
2022-09-11T04:51:01.000Z,18.90
2022-09-11T04:52:01.001Z,19.20
2022-09-11T04:53:00.984Z,19.50
2022-09-11T04:54:00.984Z,19.70
2022-09-11T04:55:01.180Z,19.50
2022-09-11T04:56:00.954Z,19.30
2022-09-11T04:57:00.930Z,20.10
2022-09-11T04:58:00.940Z,20.40
2022-09-11T04:59:00.925Z,20.20
2022-09-11T05:00:00.892Z,19.90
2022-09-11T05:01:00.933Z,19.70
2022-09-11T05:02:00.911Z,19.30
2022-09-11T05:03:00.855Z,20.50
2022-09-11T05:04:00.865Z,20.40
2022-09-11T05:05:00.848Z,20.20
2022-09-11T05:06:01.159Z,20.30
2022-09-11T05:07:00.826Z,19.30
2022-09-11T05:08:00.826Z,19.30
2022-09-11T05:09:00.794Z,18.60
2022-09-11T05:10:00.774Z,19.80
2022-09-11T05:11:00.765Z,19.90
2022-09-11T05:12:01.076Z,19.70
2022-09-11T05:13:00.759Z,20.00
2022-09-11T05:14:00.744Z,19.20
2022-09-11T05:15:00.740Z,19.80
2022-09-11T05:16:00.789Z,20.00
2022-09-11T05:17:00.697Z,20.30
2022-09-11T05:18:01.011Z,20.20
2022-09-11T05:19:00.691Z,19.50
2022-09-11T05:20:00.668Z,21.10
2022-09-11T05:21:00.650Z,20.30
2022-09-11T05:22:00.648Z,19.30
2022-09-11T05:23:00.641Z,20.10
2022-09-11T05:24:00.849Z,20.70
2022-09-11T05:25:00.622Z,19.90
2022-09-11T05:26:00.611Z,19.40
2022-09-11T05:27:00.600Z,20.50
2022-09-11T05:28:00.578Z,20.00
2022-09-11T05:29:00.569Z,19.20
2022-09-11T05:30:00.884Z,19.70
2022-09-11T05:31:00.553Z,19.70
2022-09-11T05:32:00.552Z,19.90
2022-09-11T05:33:00.518Z,19.90
2022-09-11T05:34:00.516Z,20.10
2022-09-11T05:35:00.811Z,19.10
2022-09-11T05:36:00.505Z,19.50
2022-09-11T05:37:00.717Z,20.40
2022-09-11T05:38:00.477Z,19.50
2022-09-11T05:39:00.466Z,19.90
2022-09-11T05:40:00.509Z,19.40
2022-09-11T05:41:00.424Z,19.90
2022-09-11T05:42:00.621Z,18.90
2022-09-11T05:43:00.415Z,18.30
2022-09-11T05:44:00.407Z,19.00
2022-09-11T05:45:00.374Z,19.30
2022-09-11T05:46:00.418Z,19.50
2022-09-11T05:47:00.354Z,18.90
2022-09-11T05:48:00.686Z,19.50
2022-09-11T05:49:00.357Z,18.90
2022-09-11T05:50:00.326Z,18.60
2022-09-11T05:51:00.313Z,19.00
2022-09-11T05:52:00.319Z,19.00
2022-09-11T05:53:00.288Z,19.50
2022-09-11T05:54:00.590Z,19.30
2022-09-11T05:55:00.279Z,19.40
2022-09-11T05:56:00.275Z,19.50
2022-09-11T05:57:01.803Z,18.60
2022-09-11T05:58:00.253Z,18.70
2022-09-11T05:59:00.470Z,18.10
2022-09-11T06:00:00.237Z,19.00
2022-09-11T06:01:00.285Z,18.60
2022-09-11T06:02:00.229Z,18.30
2022-09-11T06:03:00.191Z,19.40
2022-09-11T06:04:00.160Z,18.80
2022-09-11T06:05:00.473Z,17.40
2022-09-11T06:06:00.154Z,18.40
2022-09-11T06:07:00.131Z,18.30
2022-09-11T06:08:00.122Z,19.30
2022-09-11T06:09:00.134Z,18.20
2022-09-11T06:10:03.121Z,18.30
2022-09-11T06:11:00.433Z,18.60
2022-09-11T06:12:00.092Z,18.30
2022-09-11T06:13:00.076Z,18.70
2022-09-11T06:14:00.042Z,18.10
2022-09-11T06:15:00.046Z,18.80
2022-09-11T06:16:00.038Z,18.90
2022-09-11T06:17:00.087Z,19.10
2022-09-11T06:18:00.023Z,18.50
2022-09-11T06:19:00.122Z,19.30
2022-09-11T06:19:59.995Z,18.90
2022-09-11T06:20:59.980Z,17.30
2022-09-11T06:21:59.959Z,18.80
2022-09-11T06:23:00.245Z,17.90
2022-09-11T06:23:59.936Z,18.30
2022-09-11T06:24:59.952Z,18.00
2022-09-11T06:25:59.916Z,18.70
2022-09-11T06:26:59.909Z,17.90
2022-09-11T06:27:59.900Z,17.70
2022-09-11T06:29:00.209Z,18.10
2022-09-11T06:30:00.874Z,18.30
2022-09-11T06:30:59.885Z,17.50
2022-09-11T06:31:59.838Z,18.20
2022-09-11T06:32:59.842Z,18.30
2022-09-11T06:34:00.062Z,18.40
2022-09-11T06:34:59.813Z,17.40
2022-09-11T06:35:59.799Z,17.80
2022-09-11T06:36:59.817Z,17.90
2022-09-11T06:37:59.783Z,17.80
2022-09-11T06:39:00.069Z,17.70
2022-09-11T06:39:59.857Z,18.60
2022-09-11T06:40:59.792Z,18.00
2022-09-11T06:41:59.746Z,17.80
2022-09-11T06:42:59.732Z,17.50
2022-09-11T06:43:59.973Z,17.80
2022-09-11T06:44:59.692Z,17.60
2022-09-11T06:45:59.721Z,17.60
2022-09-11T06:46:59.738Z,17.90
2022-09-11T06:47:59.676Z,17.90
2022-09-11T06:48:59.666Z,16.60
2022-09-11T06:49:59.943Z,17.50
2022-09-11T06:50:59.635Z,17.80
2022-09-11T06:51:59.626Z,17.10
2022-09-11T06:52:59.625Z,17.00
2022-09-11T06:53:59.617Z,17.70
2022-09-11T06:54:59.835Z,17.90
2022-09-11T06:55:59.578Z,18.40
2022-09-11T06:56:59.554Z,17.70
2022-09-11T06:57:59.545Z,17.80
2022-09-11T06:58:59.799Z,17.40
2022-09-11T06:59:59.536Z,17.80
2022-09-11T07:00:59.659Z,18.10
2022-09-11T07:01:59.612Z,18.00
2022-09-11T07:02:59.501Z,17.30
2022-09-11T07:03:59.814Z,17.40
2022-09-11T07:04:59.471Z,16.80
2022-09-11T07:05:59.490Z,17.70
2022-09-11T07:06:59.448Z,17.40
2022-09-11T07:07:59.428Z,17.40
2022-09-11T07:08:59.418Z,17.90
2022-09-11T07:09:59.642Z,17.50
2022-09-11T07:10:59.391Z,18.00
2022-09-11T07:11:59.380Z,17.80
2022-09-11T07:12:59.383Z,17.10
2022-09-11T07:13:59.372Z,17.80
2022-09-11T07:14:59.348Z,17.40
2022-09-11T07:15:59.684Z,17.10
2022-09-11T07:16:59.332Z,17.30
2022-09-11T07:17:59.326Z,17.20
2022-09-11T07:18:59.312Z,17.00
2022-09-11T07:19:59.333Z,17.40
2022-09-11T07:20:59.532Z,17.10
2022-09-11T07:21:59.283Z,16.90
2022-09-11T07:22:59.263Z,16.80
2022-09-11T07:23:59.244Z,16.60
2022-09-11T07:24:59.232Z,17.40
2022-09-11T07:25:59.216Z,16.30
2022-09-11T07:26:59.238Z,16.80
2022-09-11T07:27:59.455Z,17.20
2022-09-11T07:28:59.207Z,16.70
2022-09-11T07:29:59.175Z,16.60
2022-09-11T07:30:59.193Z,16.30
2022-09-11T07:31:59.290Z,16.70
2022-09-11T07:32:59.158Z,17.40
2022-09-11T07:33:59.152Z,16.90
2022-09-11T07:34:59.345Z,16.90
2022-09-11T07:35:59.120Z,17.00
2022-09-11T07:36:59.114Z,16.60
2022-09-11T07:37:59.087Z,16.80
2022-09-11T07:38:59.091Z,16.00
2022-09-11T07:39:59.363Z,16.70
2022-09-11T07:40:59.049Z,15.50
2022-09-11T07:41:59.039Z,16.60
2022-09-11T07:42:59.030Z,17.00
2022-09-11T07:43:59.018Z,16.60
2022-09-11T07:44:59.025Z,17.00
2022-09-11T07:45:59.244Z,16.50
2022-09-11T07:46:58.994Z,16.00
2022-09-11T07:47:58.970Z,16.50
2022-09-11T07:48:58.973Z,17.10
2022-09-11T07:49:59.251Z,17.30
2022-09-11T07:50:58.947Z,16.60
2022-09-11T07:51:58.981Z,16.40
2022-09-11T07:52:58.902Z,16.40
2022-09-11T07:53:58.923Z,15.70
2022-09-11T07:54:58.897Z,16.30
2022-09-11T07:55:59.054Z,16.40
2022-09-11T07:56:58.863Z,16.20
2022-09-11T07:57:58.890Z,15.50
2022-09-11T07:58:58.842Z,16.60
2022-09-11T07:59:58.837Z,17.40
2022-09-11T08:00:58.840Z,15.50
2022-09-11T08:01:58.847Z,16.00
2022-09-11T08:02:58.809Z,16.50
2022-09-11T08:03:58.816Z,15.80
2022-09-11T08:04:58.786Z,16.20
2022-09-11T08:05:58.755Z,15.50
2022-09-11T08:06:58.761Z,15.90
2022-09-11T08:07:58.727Z,15.80
2022-09-11T08:08:58.748Z,15.80
2022-09-11T08:10:23.418Z,16.10
2022-09-11T08:10:59.700Z,15.50
2022-09-11T08:11:58.678Z,15.80
2022-09-11T08:13:00.067Z,14.90
2022-09-11T08:13:58.676Z,15.40
2022-09-11T08:14:58.859Z,14.40
2022-09-11T08:15:58.653Z,15.30
2022-09-11T08:16:58.631Z,15.70
2022-09-11T08:17:58.664Z,15.30
2022-09-11T08:18:58.631Z,15.70
2022-09-11T08:19:58.610Z,15.70
2022-09-11T08:20:58.904Z,16.00
2022-09-11T08:21:58.577Z,15.80
2022-09-11T08:22:58.569Z,16.00
2022-09-11T08:23:58.561Z,16.10
2022-09-11T08:24:58.541Z,16.30
2022-09-11T08:25:58.522Z,15.60
2022-09-11T08:26:58.682Z,15.20
2022-09-11T08:27:58.518Z,14.90
2022-09-11T08:28:58.515Z,15.60
2022-09-11T08:29:58.496Z,15.70
2022-09-11T08:30:58.483Z,14.70
2022-09-11T08:32:02.229Z,14.60
2022-09-11T08:32:58.464Z,14.20
2022-09-11T08:33:58.434Z,15.10
2022-09-11T08:34:58.448Z,13.90
2022-09-11T08:35:58.404Z,15.50
2022-09-11T08:36:58.437Z,15.20
2022-09-11T08:37:58.400Z,15.20
2022-09-11T08:38:58.389Z,15.10
2022-09-11T08:39:58.390Z,15.60
2022-09-11T08:40:58.374Z,14.60
2022-09-11T08:41:58.378Z,14.40
2022-09-11T08:42:58.391Z,14.70
2022-09-11T08:43:58.317Z,14.70
2022-09-11T08:44:58.299Z,14.40
2022-09-11T08:45:58.323Z,14.90
2022-09-11T08:46:58.291Z,15.00
2022-09-11T08:47:58.284Z,14.30
2022-09-11T08:48:58.591Z,14.10
2022-09-11T08:49:58.253Z,13.80
2022-09-11T08:50:58.253Z,14.30
2022-09-11T08:51:58.220Z,13.80
2022-09-11T08:52:58.243Z,14.10
2022-09-11T08:53:58.211Z,13.60
2022-09-11T08:54:58.204Z,13.60
2022-09-11T08:55:58.483Z,15.00
2022-09-11T08:56:58.170Z,13.80
2022-09-11T08:57:58.171Z,14.30
2022-09-11T08:58:58.144Z,13.20
2022-09-11T08:59:58.131Z,13.60
2022-09-11T09:00:58.176Z,13.50
2022-09-11T09:01:58.151Z,13.50
2022-09-11T09:02:58.093Z,13.70
2022-09-11T09:03:58.115Z,13.90
2022-09-11T09:04:58.075Z,13.90
2022-09-11T09:05:58.074Z,13.40
2022-09-11T09:06:58.054Z,13.50
2022-09-11T09:07:58.049Z,13.10
2022-09-11T09:08:58.299Z,14.40
2022-09-11T09:09:58.015Z,14.10
2022-09-11T09:10:58.004Z,14.80
2022-09-11T09:11:58.006Z,15.10
2022-09-11T09:12:57.978Z,14.00
2022-09-11T09:13:57.980Z,15.50
2022-09-11T09:14:57.957Z,14.10
2022-09-11T09:15:57.986Z,15.00
2022-09-11T09:16:57.928Z,15.20
2022-09-11T09:17:57.930Z,15.00
2022-09-11T09:18:57.919Z,15.50
2022-09-11T09:19:57.910Z,15.60
2022-09-11T09:20:57.889Z,15.60
2022-09-11T09:21:57.890Z,16.10
2022-09-11T09:22:57.879Z,15.00
2022-09-11T09:23:57.863Z,15.70
2022-09-11T09:24:57.854Z,14.80
2022-09-11T09:25:57.842Z,16.00
2022-09-11T09:26:57.813Z,16.20
2022-09-11T09:27:57.822Z,15.80
2022-09-11T09:28:57.813Z,15.50
2022-09-11T09:29:57.794Z,15.80
2022-09-11T09:30:57.805Z,16.00
2022-09-11T09:31:57.781Z,15.70
2022-09-11T09:32:57.773Z,15.90
2022-09-11T09:33:57.746Z,15.70
2022-09-11T09:34:57.737Z,15.00
2022-09-11T09:35:57.727Z,15.60
2022-09-11T09:36:57.726Z,15.50
2022-09-11T09:37:57.685Z,15.50
2022-09-11T09:38:57.956Z,15.40
2022-09-11T09:39:57.710Z,15.40
2022-09-11T09:40:57.657Z,15.60
2022-09-11T09:41:57.647Z,16.20
2022-09-11T09:42:57.642Z,15.10
2022-09-11T09:43:57.818Z,15.40
2022-09-11T09:44:57.624Z,16.80
2022-09-11T09:45:57.625Z,16.80
2022-09-11T09:46:57.601Z,16.40
2022-09-11T09:47:57.569Z,17.00
2022-09-11T09:48:57.559Z,16.30
2022-09-11T09:49:57.871Z,16.60
2022-09-11T09:50:57.556Z,16.10
2022-09-11T09:52:02.138Z,16.30
2022-09-11T09:52:58.653Z,17.50
2022-09-11T09:53:57.499Z,16.10
2022-09-11T09:54:57.489Z,17.50
2022-09-11T09:55:57.471Z,17.60
2022-09-11T09:56:57.483Z,16.50
2022-09-11T09:57:57.466Z,16.00
2022-09-11T09:58:57.664Z,16.30
2022-09-11T09:59:57.423Z,15.70
2022-09-11T10:00:57.436Z,14.90
2022-09-11T10:01:57.507Z,14.80
2022-09-11T10:02:57.397Z,14.00
2022-09-11T10:03:57.574Z,13.40
2022-09-11T10:04:57.387Z,13.90
2022-09-11T10:05:57.355Z,14.90
2022-09-11T10:06:57.355Z,14.00
2022-09-11T10:07:57.337Z,14.30
2022-09-11T10:09:00.219Z,13.90
2022-09-11T10:09:58.349Z,12.80
2022-09-11T10:10:57.304Z,12.30
2022-09-11T10:11:57.299Z,12.30
2022-09-11T10:13:17.765Z,12.20
2022-09-11T10:13:58.268Z,12.60
2022-09-11T10:14:57.277Z,12.00
2022-09-11T10:15:57.301Z,11.80
2022-09-11T10:16:57.237Z,12.70
2022-09-11T10:17:57.220Z,13.00
2022-09-11T10:18:57.231Z,13.40
2022-09-11T10:19:57.240Z,13.70
2022-09-11T10:20:59.664Z,14.20
2022-09-11T10:21:57.203Z,13.50
2022-09-11T10:22:57.177Z,13.70
2022-09-11T10:23:57.193Z,13.50
2022-09-11T10:24:57.164Z,14.00
2022-09-11T10:25:57.130Z,13.60
2022-09-11T10:26:57.142Z,13.90
2022-09-11T10:27:57.101Z,14.40
2022-09-11T10:28:57.116Z,14.30
2022-09-11T10:29:57.097Z,14.20
2022-09-11T10:30:57.118Z,13.90
2022-09-11T10:31:57.419Z,14.00
2022-09-11T10:33:00.117Z,13.70
2022-09-11T10:33:58.058Z,13.70
2022-09-11T10:34:57.056Z,14.20
2022-09-11T10:35:57.014Z,14.90
2022-09-11T10:36:57.076Z,14.90
2022-09-11T10:37:56.994Z,14.50
2022-09-11T10:38:57.000Z,15.10
2022-09-11T10:39:57.009Z,15.00
2022-09-11T10:40:56.979Z,15.40
2022-09-11T10:41:56.962Z,14.50
2022-09-11T10:42:56.970Z,16.60
2022-09-11T10:43:56.940Z,15.40
2022-09-11T10:44:56.961Z,15.40
2022-09-11T10:45:56.909Z,16.10
2022-09-11T10:46:57.230Z,15.40
2022-09-11T10:47:56.879Z,15.50
2022-09-11T10:48:56.882Z,14.80
2022-09-11T10:49:56.860Z,15.30
2022-09-11T10:50:56.863Z,15.20
2022-09-11T10:51:56.834Z,14.90
2022-09-11T10:52:56.841Z,15.30
2022-09-11T10:53:56.822Z,14.80
2022-09-11T10:54:56.808Z,15.20
2022-09-11T10:55:56.805Z,14.60
2022-09-11T10:56:56.814Z,14.50
2022-09-11T10:57:56.761Z,14.50
2022-09-11T10:58:56.773Z,14.60
2022-09-11T10:59:57.065Z,14.80
2022-09-11T11:00:56.733Z,14.40
2022-09-11T11:01:56.817Z,15.00
2022-09-11T11:02:56.723Z,13.50
2022-09-11T11:03:56.709Z,14.60
2022-09-11T11:04:56.698Z,14.30
2022-09-11T11:05:56.985Z,14.50
2022-09-11T11:06:56.668Z,14.50
2022-09-11T11:07:56.660Z,14.40
2022-09-11T11:08:56.658Z,15.20
2022-09-11T11:09:56.627Z,15.10
2022-09-11T11:10:56.641Z,15.30
2022-09-11T11:11:56.607Z,14.70
2022-09-11T11:12:56.597Z,14.80
2022-09-11T11:13:56.592Z,14.90
2022-09-11T11:14:56.588Z,15.60
2022-09-11T11:15:56.588Z,15.80
2022-09-11T11:16:56.566Z,14.60
2022-09-11T11:17:56.528Z,14.90
2022-09-11T11:18:56.530Z,14.60
2022-09-11T11:19:56.742Z,14.90
2022-09-11T11:20:56.523Z,14.20
2022-09-11T11:21:56.501Z,14.20
2022-09-11T11:22:56.479Z,13.90
2022-09-11T11:23:56.475Z,14.10
2022-09-11T11:24:56.473Z,14.10
2022-09-11T11:25:56.453Z,13.90
2022-09-11T11:26:56.422Z,13.80
2022-09-11T11:27:56.432Z,13.20
2022-09-11T11:28:56.403Z,12.90
2022-09-11T11:29:56.393Z,12.30
2022-09-11T11:30:56.417Z,13.50
2022-09-11T11:31:56.594Z,13.70
2022-09-11T11:32:56.362Z,13.10
2022-09-11T11:33:56.615Z,13.50
2022-09-11T11:34:56.348Z,13.90
2022-09-11T11:35:56.338Z,13.50
2022-09-11T11:36:56.346Z,13.20
2022-09-11T11:37:56.309Z,13.00
2022-09-11T11:38:56.293Z,12.80
2022-09-11T11:39:56.345Z,12.70
2022-09-11T11:40:56.566Z,12.30
2022-09-11T11:41:56.258Z,12.20
2022-09-11T11:42:56.571Z,12.10
2022-09-11T11:43:56.228Z,12.50
2022-09-11T11:44:56.218Z,12.40
2022-09-11T11:45:56.275Z,12.20
2022-09-11T11:46:56.189Z,13.50
2022-09-11T11:47:56.188Z,11.90
2022-09-11T11:48:56.469Z,12.80
2022-09-11T11:49:56.174Z,12.40
2022-09-11T11:50:56.162Z,12.90
2022-09-11T11:51:56.473Z,12.40
2022-09-11T11:52:56.135Z,12.90
2022-09-11T11:53:56.133Z,11.80
2022-09-11T11:54:56.117Z,11.60
2022-09-11T11:55:56.426Z,11.60
2022-09-11T11:56:56.091Z,12.10
2022-09-11T11:57:56.085Z,12.10
2022-09-11T11:58:56.378Z,12.80
2022-09-11T11:59:56.044Z,11.40
2022-09-11T12:00:56.045Z,12.20
2022-09-11T12:01:56.331Z,12.80
2022-09-11T12:02:56.004Z,13.00
2022-09-11T12:03:56.044Z,12.70
2022-09-11T12:04:55.975Z,12.90
2022-09-11T12:05:55.975Z,12.80
2022-09-11T12:06:56.011Z,13.30
2022-09-11T12:07:56.256Z,12.70
2022-09-11T12:08:55.935Z,12.80
2022-09-11T12:09:55.942Z,12.80
2022-09-11T12:10:55.925Z,13.40
2022-09-11T12:11:55.898Z,13.50
2022-09-11T12:12:55.888Z,12.60
2022-09-11T12:13:56.221Z,12.60
2022-09-11T12:14:55.871Z,12.80
2022-09-11T12:15:55.884Z,12.40
2022-09-11T12:16:55.850Z,12.10
2022-09-11T12:17:55.838Z,12.60
2022-09-11T12:18:55.874Z,12.50
2022-09-11T12:19:56.140Z,12.60
2022-09-11T12:20:55.849Z,14.70
2022-09-11T12:21:55.991Z,14.60
2022-09-11T12:22:55.795Z,14.30
2022-09-11T12:23:55.782Z,13.80
2022-09-11T12:24:55.742Z,13.70
2022-09-11T12:25:55.757Z,13.60
2022-09-11T12:26:55.743Z,14.00
2022-09-11T12:27:55.991Z,13.70
2022-09-11T12:28:56.607Z,14.10
2022-09-11T12:29:55.758Z,13.80
2022-09-11T12:30:55.750Z,13.60
2022-09-11T12:31:55.688Z,13.90
2022-09-11T12:32:55.656Z,13.90
2022-09-11T12:33:55.855Z,14.60
2022-09-11T12:34:55.635Z,14.10
2022-09-11T12:35:55.651Z,14.90
2022-09-11T12:36:55.628Z,14.00
2022-09-11T12:37:55.640Z,15.10
2022-09-11T12:38:55.607Z,14.00
2022-09-11T12:39:55.628Z,14.40
2022-09-11T12:40:55.582Z,13.50
2022-09-11T12:41:55.574Z,13.60
2022-09-11T12:42:55.574Z,14.70
2022-09-11T12:43:55.579Z,14.50
2022-09-11T12:44:55.856Z,14.50
2022-09-11T12:45:55.609Z,14.90
2022-09-11T12:46:55.510Z,15.20
2022-09-11T12:47:55.505Z,14.40
2022-09-11T12:49:11.665Z,14.80
2022-09-11T12:49:56.780Z,14.70
2022-09-11T12:50:55.474Z,14.50
2022-09-11T12:51:55.467Z,14.80